Time;durP1;ratioP1;P1;durP2;ratioP2;P2;SDS_P1;SDS_P2;PMS_P1;PMS_P2;Temp;Humidity;BMP_temperature;BMP_pressure;BME280_temperature;BME280_humidity;BME280_pressure;Samples;Min_cycle;Max_cycle;Signal;HPM_P1;HPM_P2
2024/03/16 00:01:07;;;;;;;4.30;1.00;;;;;;;13.15;69.27;99980.88;10348811;28;20046;-81
2024/03/16 00:06:09;;;;;;;3.60;1.27;;;;;;;13.20;69.33;99989.19;10343081;28;20054;-81
2024/03/16 00:11:11;;;;;;;8.25;1.27;;;;;;;13.24;69.35;99992.31;10327038;28;20076;-82
2024/03/16 00:16:13;;;;;;;7.38;1.55;;;;;;;13.25;69.54;99984.03;10347360;28;20089;-81
2024/03/16 00:21:14;;;;;;;2.45;0.82;;;;;;;13.22;69.84;99981.72;10340421;28;20047;-81
2024/03/16 00:26:18;;;;;;;3.72;0.82;;;;;;;13.17;70.12;99991.44;10326943;28;20066;-80
2024/03/16 00:31:19;;;;;;;2.47;0.50;;;;;;;13.18;70.49;99979.63;10333220;28;20069;-81
2024/03/16 00:36:22;;;;;;;3.33;0.70;;;;;;;13.22;70.32;99987.09;10343775;28;20100;-80
2024/03/16 00:41:24;;;;;;;3.80;0.60;;;;;;;13.30;70.20;99999.63;10347185;28;20053;-81
2024/03/16 00:46:26;;;;;;;7.28;0.95;;;;;;;13.35;70.10;99980.97;10332216;28;20046;-81
2024/03/16 00:51:28;;;;;;;1.52;0.50;;;;;;;13.37;70.12;99976.19;10329916;28;20505;-81
2024/03/16 00:56:30;;;;;;;2.35;0.60;;;;;;;13.40;69.73;99966.84;10327942;28;20501;-82
2024/03/16 01:01:33;;;;;;;3.13;0.50;;;;;;;13.38;69.83;99966.22;10346650;28;20095;-81
2024/03/16 01:06:36;;;;;;;2.58;0.50;;;;;;;13.38;69.57;99971.63;10341408;28;20453;-81
2024/03/16 01:11:37;;;;;;;2.35;1.10;;;;;;;13.36;69.66;99981.78;10321008;28;20062;-81
2024/03/16 01:16:39;;;;;;;5.88;1.25;;;;;;;13.39;69.40;99992.16;10344932;28;20117;-82
2024/03/16 01:21:41;;;;;;;2.42;0.40;;;;;;;13.35;69.26;99982.81;10345212;28;20074;-82
2024/03/16 01:26:43;;;;;;;1.73;0.52;;;;;;;13.34;69.14;99981.16;10345463;28;20433;-82
2024/03/16 01:31:45;;;;;;;3.25;0.70;;;;;;;13.31;69.24;99992.34;10348102;28;20058;-82
2024/03/16 01:36:47;;;;;;;1.77;0.40;;;;;;;13.26;69.24;99991.06;10348039;28;20065;-81
2024/03/16 01:41:49;;;;;;;2.92;0.80;;;;;;;13.27;69.09;100000.84;10342372;28;20608;-91
2024/03/16 01:46:51;;;;;;;2.90;0.70;;;;;;;13.29;69.23;99992.56;10340174;28;20058;-90
2024/03/16 01:51:53;;;;;;;6.47;0.68;;;;;;;13.25;69.20;99989.41;10356251;28;20092;-89
2024/03/16 01:56:54;;;;;;;2.38;0.50;;;;;;;13.22;69.19;99989.81;10349876;28;20057;-89
2024/03/16 02:02:01;;;;;;;3.03;0.70;;;;;;;13.17;69.28;99983.34;10336998;28;20042;-89
2024/03/16 02:07:08;;;;;;;5.10;1.65;;;;;;;13.13;69.31;99987.47;10320176;28;20057;-90
2024/03/16 02:12:12;;;;;;;5.38;0.70;;;;;;;13.12;69.42;99988.53;10333061;28;20054;-89
2024/03/16 02:17:14;;;;;;;4.10;0.70;;;;;;;13.11;69.54;99990.38;10353103;28;20121;-89
2024/03/16 02:22:16;;;;;;;4.63;0.75;;;;;;;13.09;69.50;100000.53;10339839;28;20041;-89
2024/03/16 02:27:19;;;;;;;2.03;0.80;;;;;;;13.13;69.46;100006.38;10353400;28;20306;-88
2024/03/16 02:32:22;;;;;;;2.30;0.70;;;;;;;13.13;69.80;100019.88;10333960;28;20069;-88
2024/03/16 02:37:24;;;;;;;3.90;0.57;;;;;;;13.16;69.50;100020.31;10347086;28;20066;-88
2024/03/16 02:42:25;;;;;;;2.80;0.85;;;;;;;13.23;69.39;100015.78;10348548;28;20051;-88
2024/03/16 02:47:27;;;;;;;3.33;0.93;;;;;;;13.14;69.98;100014.28;10347507;28;20072;-89
2024/03/16 02:52:31;;;;;;;9.10;1.00;;;;;;;13.15;69.67;100024.06;10360582;28;20068;-85
2024/03/16 02:57:32;;;;;;;4.10;1.08;;;;;;;13.17;69.79;100027.38;10385648;28;20058;-86
2024/03/16 03:02:34;;;;;;;2.78;0.60;;;;;;;13.23;69.56;100021.19;10392780;28;20046;-86
2024/03/16 03:07:37;;;;;;;3.20;0.90;;;;;;;13.23;69.78;100023.88;10387276;28;20105;-86
2024/03/16 03:12:38;;;;;;;0.90;0.60;;;;;;;13.26;69.71;100025.31;10381261;28;20058;-85
2024/03/16 03:17:40;;;;;;;2.22;0.70;;;;;;;13.25;69.87;100029.06;10382727;28;20054;-85
2024/03/16 03:22:42;;;;;;;1.67;0.80;;;;;;;13.27;69.63;100030.53;10365268;28;20085;-85
2024/03/16 03:27:44;;;;;;;3.42;0.60;;;;;;;13.29;69.56;100030.34;10370785;28;20057;-81
2024/03/16 03:32:46;;;;;;;2.58;0.50;;;;;;;13.32;69.48;100021.03;10336470;28;20066;-81
2024/03/16 03:37:48;;;;;;;2.67;1.30;;;;;;;13.29;69.74;100023.09;10328651;28;20052;-81
2024/03/16 03:42:52;;;;;;;2.88;1.08;;;;;;;13.30;69.37;100034.72;10340942;28;20133;-81
2024/03/16 03:48:14;;;;;;;2.55;0.68;;;;;;;13.33;69.51;100045.13;10341265;28;20073;-82
2024/03/16 03:53:17;;;;;;;3.70;1.17;;;;;;;13.32;69.47;100048.03;10322472;28;20077;-81
2024/03/16 03:58:20;;;;;;;4.20;0.80;;;;;;;13.41;69.26;100049.53;10344240;28;20050;-86
2024/03/16 04:03:22;;;;;;;3.72;1.00;;;;;;;13.34;69.25;100052.19;10346631;28;20427;-80
2024/03/16 04:08:24;;;;;;;3.58;0.80;;;;;;;13.30;69.22;100064.41;10315080;28;20069;-80
2024/03/16 04:13:26;;;;;;;2.90;0.90;;;;;;;13.22;69.70;100059.97;10343178;28;20053;-81
2024/03/16 04:18:28;;;;;;;3.55;1.30;;;;;;;13.15;69.64;100069.09;10338316;28;20056;-81
2024/03/16 04:23:29;;;;;;;2.25;1.00;;;;;;;13.13;69.77;100068.44;10320661;28;20089;-81
2024/03/16 04:28:31;;;;;;;2.88;0.70;;;;;;;13.10;69.64;100077.78;10342548;28;20097;-82
2024/03/16 04:33:33;;;;;;;3.42;1.67;;;;;;;13.12;69.73;100064.91;10339413;28;20077;-81
2024/03/16 04:38:35;;;;;;;4.68;1.08;;;;;;;13.08;69.40;100061.78;10352423;28;20339;-85
2024/03/16 04:43:37;;;;;;;3.28;1.17;;;;;;;13.04;69.51;100065.09;10360113;28;20544;-86
2024/03/16 04:48:39;;;;;;;1.90;1.08;;;;;;;13.02;69.60;100069.84;10351903;28;20084;-86
2024/03/16 04:53:41;;;;;;;2.60;1.08;;;;;;;12.94;69.64;100078.94;10379231;28;20141;-86
2024/03/16 04:58:42;;;;;;;3.95;1.00;;;;;;;12.84;69.71;100076.59;10383465;28;20022;-86
2024/03/16 05:03:44;;;;;;;1.60;0.90;;;;;;;12.78;69.95;100069.28;10374209;28;20058;-86
2024/03/16 05:08:46;;;;;;;2.53;0.70;;;;;;;12.77;69.74;100085.66;10373852;28;20058;-86
2024/03/16 05:13:48;;;;;;;1.90;0.90;;;;;;;12.70;70.12;100089.16;10335134;28;20077;-80
2024/03/16 05:18:49;;;;;;;3.17;0.88;;;;;;;12.60;70.26;100091.38;10344139;28;20053;-81
2024/03/16 05:23:51;;;;;;;2.08;0.80;;;;;;;12.65;70.03;100085.38;10330194;28;20053;-81
2024/03/16 05:28:52;;;;;;;1.85;0.68;;;;;;;12.62;69.75;100078.53;10349156;28;20137;-80
2024/03/16 05:33:54;;;;;;;2.25;0.68;;;;;;;12.59;69.81;100100.47;10332253;28;20589;-80
2024/03/16 05:38:57;;;;;;;5.70;1.23;;;;;;;12.63;69.80;100104.44;10335515;28;20329;-81
2024/03/16 05:43:58;;;;;;;3.65;1.02;;;;;;;12.70;69.66;100116.13;10342421;28;20589;-82
2024/03/16 05:49:00;;;;;;;5.72;1.00;;;;;;;12.66;69.89;100112.16;10347108;28;20125;-82
2024/03/16 05:54:04;;;;;;;2.35;1.08;;;;;;;12.63;69.58;100106.31;10329791;28;20418;-82
2024/03/16 05:59:08;;;;;;;5.60;0.95;;;;;;;12.58;69.79;100112.31;10322308;28;20062;-82
2024/03/16 06:04:12;;;;;;;4.03;0.70;;;;;;;12.59;69.87;100118.53;10350698;28;20106;-82
2024/03/16 06:09:14;;;;;;;3.40;0.90;;;;;;;12.63;69.89;100125.19;10333343;28;20046;-81
2024/03/16 06:14:15;;;;;;;3.83;1.02;;;;;;;12.67;69.80;100135.38;10333658;28;20489;-82
2024/03/16 06:19:17;;;;;;;4.13;0.98;;;;;;;12.70;69.36;100136.88;10342000;28;20051;-81
2024/03/16 06:24:19;;;;;;;2.17;0.90;;;;;;;12.66;70.10;100154.47;10350641;28;20050;-86
2024/03/16 06:29:25;;;;;;;3.85;1.00;;;;;;;12.73;70.12;100151.81;10375573;28;20509;-87
2024/03/16 06:34:28;;;;;;;5.03;1.30;;;;;;;12.72;69.85;100160.94;10358211;28;20057;-80
2024/03/16 06:39:30;;;;;;;4.40;1.10;;;;;;;12.79;69.75;100164.53;10346027;28;20343;-82
2024/03/16 06:44:31;;;;;;;4.60;1.08;;;;;;;12.81;69.96;100182.16;10342932;28;20046;-83
2024/03/16 06:49:33;;;;;;;2.70;1.42;;;;;;;12.84;69.62;100179.09;10345085;28;20041;-82
2024/03/16 06:54:36;;;;;;;5.35;1.15;;;;;;;12.93;69.46;100181.66;10343402;28;20081;-83
2024/03/16 06:59:37;;;;;;;2.50;0.88;;;;;;;12.97;69.65;100178.34;10344481;28;20116;-82
2024/03/16 07:04:39;;;;;;;1.08;0.70;;;;;;;13.08;69.14;100196.72;10346999;28;20072;-88
2024/03/16 07:09:42;;;;;;;2.47;1.02;;;;;;;13.09;69.10;100201.09;10346051;28;20508;-87
2024/03/16 07:14:43;;;;;;;2.97;1.23;;;;;;;13.10;68.77;100213.53;10334904;28;20057;-87
2024/03/16 07:19:45;;;;;;;2.42;1.38;;;;;;;13.11;69.19;100227.88;10333546;28;20081;-87
2024/03/16 07:24:46;;;;;;;2.08;0.77;;;;;;;13.17;68.75;100246.00;10350517;28;20058;-88
2024/03/16 07:29:48;;;;;;;2.42;1.00;;;;;;;13.21;68.82;100243.72;10315126;28;20101;-87
2024/03/16 07:34:50;;;;;;;3.05;1.40;;;;;;;13.30;68.87;100242.59;10342411;28;20077;-89
2024/03/16 07:39:51;;;;;;;5.60;1.08;;;;;;;13.31;68.94;100259.59;10358536;28;20073;-86
2024/03/16 07:44:53;;;;;;;3.08;1.00;;;;;;;13.36;68.84;100260.69;10342729;28;20141;-85
2024/03/16 07:49:55;;;;;;;4.35;1.30;;;;;;;13.38;69.02;100268.59;10361945;28;20093;-86
2024/03/16 07:54:56;;;;;;;3.35;0.90;;;;;;;13.55;68.65;100266.44;10352939;28;20118;-88
2024/03/16 07:59:58;;;;;;;3.15;0.88;;;;;;;13.73;68.05;100265.94;10346509;28;20060;-84
2024/03/16 08:05:00;;;;;;;1.55;0.85;;;;;;;13.82;67.95;100272.84;10390363;28;20046;-82
2024/03/16 08:10:03;;;;;;;4.10;0.85;;;;;;;13.91;68.09;100274.34;10406321;28;20057;-85
2024/03/16 08:15:05;;;;;;;8.18;1.40;;;;;;;14.11;67.76;100277.16;10399378;28;20057;-87
2024/03/16 08:20:08;;;;;;;9.13;3.13;;;;;;;14.22;67.47;100284.69;10383712;23;20049;-59
2024/03/16 08:25:10;;;;;;;3.00;0.80;;;;;;;14.18;67.69;100290.69;10407011;28;20133;-59
2024/03/16 08:30:12;;;;;;;2.47;0.77;;;;;;;14.31;67.34;100304.25;10406107;28;20045;-59
2024/03/16 08:35:14;;;;;;;2.13;0.75;;;;;;;14.78;66.65;100290.94;10411397;28;20046;-59
2024/03/16 08:40:16;;;;;;;2.67;0.40;;;;;;;15.32;65.59;100295.34;10409678;28;20077;-59
2024/03/16 08:45:17;;;;;;;1.10;0.45;;;;;;;15.36;65.25;100290.34;10403931;28;20052;-59
2024/03/16 08:50:19;;;;;;;0.70;0.30;;;;;;;15.29;65.28;100300.38;10402839;28;20394;-59
2024/03/16 08:55:23;;;;;;;2.55;0.40;;;;;;;14.99;65.50;100311.59;10384245;23;20061;-81
2024/03/16 09:00:25;;;;;;;0.80;0.30;;;;;;;14.77;66.47;100316.31;10357027;28;20053;-81
2024/03/16 09:05:26;;;;;;;1.02;0.25;;;;;;;14.66;66.64;100317.75;10359968;28;20084;-81
2024/03/16 09:10:28;;;;;;;1.50;0.20;;;;;;;14.78;66.07;100323.41;10372550;28;20046;-81
2024/03/16 09:15:29;;;;;;;0.20;0.20;;;;;;;15.00;65.39;100332.19;10376547;28;20137;-81
2024/03/16 09:20:31;;;;;;;0.77;0.30;;;;;;;15.20;65.12;100327.63;10363098;28;20073;-80
2024/03/16 09:25:33;;;;;;;0.28;0.10;;;;;;;15.52;63.83;100338.69;10376934;28;20057;-82
2024/03/16 09:30:34;;;;;;;0.50;0.10;;;;;;;15.62;63.73;100333.69;10333541;28;20052;-81
2024/03/16 09:35:39;;;;;;;1.08;0.38;;;;;;;15.60;63.75;100343.91;10332462;28;20484;-81
2024/03/16 09:40:43;;;;;;;0.88;0.10;;;;;;;15.77;62.88;100338.06;10317868;28;20042;-81
2024/03/16 09:45:46;;;;;;;0.90;0.55;;;;;;;15.96;62.19;100339.94;10355515;28;20046;-80
2024/03/16 09:50:54;;;;;;;1.08;0.10;;;;;;;16.01;61.88;100355.56;10330980;28;20057;-81
2024/03/16 09:55:57;;;;;;;2.05;0.03;;;;;;;16.16;61.22;100360.75;10281798;28;20065;-79
2024/03/16 10:01:01;;;;;;;0.05;0.00;;;;;;;16.30;60.76;100361.53;10303279;28;20038;-80
2024/03/16 10:06:05;;;;;;;0.10;0.00;;;;;;;16.44;60.38;100369.41;10306754;28;20062;-85
2024/03/16 10:11:10;;;;;;;0.08;0.00;;;;;;;16.31;60.33;100376.75;10344008;23;20054;-62
2024/03/16 10:16:11;;;;;;;0.03;0.03;;;;;;;15.96;60.72;100406.88;10311835;28;20042;-64
2024/03/16 10:21:11;;;;;;;3.95;0.00;;;;;;;13.59;65.65;100438.72;10313894;28;20070;-63
2024/03/16 10:26:13;;;;;;;0.00;0.00;;;;;;;13.44;67.35;100440.63;10315828;28;20098;-62
2024/03/16 10:31:13;;;;;;;0.20;0.10;;;;;;;13.05;68.13;100468.81;10314308;28;20050;-63
2024/03/16 10:36:17;;;;;;;0.22;0.20;;;;;;;12.82;68.34;100467.09;10314078;28;20153;-65
2024/03/16 10:41:18;;;;;;;0.32;0.20;;;;;;;12.87;68.02;100475.50;10314640;28;20065;-65
2024/03/16 10:46:19;;;;;;;0.28;0.20;;;;;;;13.10;66.73;100482.59;10316904;28;20452;-64
2024/03/16 10:51:20;;;;;;;0.98;0.30;;;;;;;12.99;66.12;100494.69;10312690;28;20058;-64
2024/03/16 10:56:20;;;;;;;0.30;0.30;;;;;;;13.38;64.58;100498.13;10314144;28;20074;-64
2024/03/16 11:01:21;;;;;;;0.43;0.30;;;;;;;13.62;63.41;100497.72;10298271;28;20072;-64
2024/03/16 11:06:23;;;;;;;1.95;0.38;;;;;;;13.77;63.10;100499.56;10313609;28;20050;-64
2024/03/16 11:11:30;;;;;;;1.45;0.40;;;;;;;14.03;63.48;100499.78;10313321;28;20119;-63
2024/03/16 11:16:35;;;;;;;0.50;0.20;;;;;;;13.94;63.94;100511.78;10307255;28;20050;-64
2024/03/16 11:21:38;;;;;;;0.68;0.30;;;;;;;13.76;63.74;100546.50;10297284;28;20062;-64
2024/03/16 11:26:38;;;;;;;1.98;0.40;;;;;;;13.65;63.05;100550.56;10310047;28;20461;-64
2024/03/16 11:31:40;;;;;;;1.25;0.28;;;;;;;13.85;60.62;100538.09;10303785;28;20058;-64
2024/03/16 11:36:42;;;;;;;1.02;0.30;;;;;;;14.03;60.27;100543.03;10313459;28;20054;-64
2024/03/16 11:41:48;;;;;;;2.90;0.38;;;;;;;14.83;58.26;100535.56;10295737;28;20058;-64
2024/03/16 11:46:49;;;;;;;0.40;0.28;;;;;;;14.88;57.56;100551.19;10312668;28;20462;-63
2024/03/16 11:51:55;;;;;;;1.15;0.30;;;;;;;14.73;57.94;100545.91;10313550;28;20076;-61
2024/03/16 11:56:56;;;;;;;2.20;0.20;;;;;;;14.58;57.03;100556.00;10315476;28;20061;-61
2024/03/16 12:01:57;;;;;;;0.68;0.20;;;;;;;14.88;56.54;100565.56;10314849;28;20050;-63
2024/03/16 12:06:59;;;;;;;2.47;0.30;;;;;;;15.08;56.44;100587.31;10312382;28;20054;-63
2024/03/16 12:12:01;;;;;;;0.55;0.30;;;;;;;14.86;55.52;100594.69;10312109;28;20419;-63
2024/03/16 12:17:04;;;;;;;1.35;0.30;;;;;;;14.79;54.64;100607.34;10312760;28;20613;-63
2024/03/16 12:22:14;;;;;;;2.92;0.30;;;;;;;14.82;53.84;100615.06;10293442;28;20054;-62
2024/03/16 12:27:16;;;;;;;0.55;0.20;;;;;;;14.86;53.29;100618.22;10292382;28;20434;-63
2024/03/16 12:32:18;;;;;;;0.85;0.20;;;;;;;16.75;49.04;100605.91;10311962;28;20093;-63
2024/03/16 12:37:18;;;;;;;1.38;0.30;;;;;;;18.73;43.99;100610.59;10310763;28;20099;-61
2024/03/16 12:42:19;;;;;;;0.60;0.20;;;;;;;20.73;40.33;100620.88;10311509;28;20386;-64
2024/03/16 12:47:19;;;;;;;0.40;0.20;;;;;;;21.87;34.14;100633.22;10313176;28;20047;-64
2024/03/16 12:52:23;;;;;;;1.35;0.20;;;;;;;24.32;32.27;100616.75;10310164;28;20046;-64
2024/03/16 12:57:23;;;;;;;1.30;0.20;;;;;;;25.41;30.27;100630.19;10311339;28;20061;-62
2024/03/16 13:02:26;;;;;;;1.05;0.25;;;;;;;25.86;28.70;100625.94;10305918;28;20548;-64
2024/03/16 13:07:26;;;;;;;0.50;0.28;;;;;;;25.26;29.17;100616.38;10308979;28;20090;-64
2024/03/16 13:12:27;;;;;;;0.30;0.20;;;;;;;21.00;34.81;100654.03;10294954;28;20050;-64
2024/03/16 13:17:27;;;;;;;1.95;0.28;;;;;;;18.75;36.51;100653.97;10297343;28;20082;-64
2024/03/16 13:22:28;;;;;;;0.50;0.20;;;;;;;21.59;32.05;100643.88;10313084;28;20502;-64
2024/03/16 13:27:28;;;;;;;0.65;0.15;;;;;;;22.75;30.79;100629.03;10312242;28;20049;-64
2024/03/16 13:32:29;;;;;;;0.43;0.20;;;;;;;20.78;34.29;100640.97;10308281;28;20050;-66
2024/03/16 13:37:29;;;;;;;1.60;0.20;;;;;;;18.87;36.70;100659.53;10292411;28;20046;-64
2024/03/16 13:42:30;;;;;;;0.30;0.10;;;;;;;17.66;38.32;100678.44;10317353;28;20061;-65
2024/03/16 13:47:31;;;;;;;0.10;0.10;;;;;;;17.00;38.89;100679.41;10319585;28;20475;-64
2024/03/16 13:52:32;;;;;;;0.32;0.10;;;;;;;16.51;39.36;100686.06;10317311;28;20375;-65
2024/03/16 13:57:33;;;;;;;1.95;0.35;;;;;;;16.12;40.45;100696.63;10311616;28;20072;-64
2024/03/16 14:02:34;;;;;;;0.10;0.10;;;;;;;15.98;40.25;100694.91;10312437;28;20218;-65
2024/03/16 14:07:34;;;;;;;0.30;0.10;;;;;;;16.83;39.66;100696.13;10316080;28;20506;-64
2024/03/16 14:12:35;;;;;;;0.43;0.20;;;;;;;16.39;41.35;100700.25;10316011;28;20062;-65
2024/03/16 14:17:35;;;;;;;1.10;0.20;;;;;;;16.14;42.41;100716.25;10297609;28;20179;-64
2024/03/16 14:22:36;;;;;;;0.60;0.20;;;;;;;15.96;43.19;100710.56;10304292;28;21071;-65
2024/03/16 14:27:36;;;;;;;0.50;0.20;;;;;;;15.92;43.59;100715.53;10318348;28;20050;-64
2024/03/16 14:32:37;;;;;;;0.55;0.30;;;;;;;15.70;44.29;100713.94;10314265;28;20058;-65
2024/03/16 14:37:38;;;;;;;0.95;0.20;;;;;;;15.76;44.55;100718.59;10310048;28;20050;-65
2024/03/16 14:42:39;;;;;;;0.32;0.20;;;;;;;15.60;45.04;100736.81;10303756;28;20121;-61
2024/03/16 14:47:39;;;;;;;0.22;0.17;;;;;;;17.65;42.09;100728.41;10321477;28;20062;-60
2024/03/16 14:52:43;;;;;;;0.93;0.10;;;;;;;19.05;39.99;100724.97;10299178;28;20540;-61
2024/03/16 14:57:43;;;;;;;0.20;0.20;;;;;;;20.95;36.98;100724.97;10319377;28;20065;-62
2024/03/16 15:02:44;;;;;;;0.10;0.10;;;;;;;21.58;35.51;100734.41;10315538;28;20050;-63
2024/03/16 15:07:44;;;;;;;0.17;0.10;;;;;;;21.10;35.78;100755.41;10316029;28;20079;-62
2024/03/16 15:12:45;;;;;;;1.23;0.03;;;;;;;19.83;36.76;100759.06;10297895;28;20153;-62
2024/03/16 15:17:46;;;;;;;0.28;0.17;;;;;;;18.27;38.36;100764.22;10313194;28;20594;-62
2024/03/16 15:22:46;;;;;;;0.93;0.20;;;;;;;17.70;39.53;100766.69;10314189;28;20112;-62
2024/03/16 15:27:55;;;;;;;1.45;0.20;;;;;;;17.67;39.10;100769.00;10300892;28;20072;-62
2024/03/16 15:32:56;;;;;;;0.50;0.20;;;;;;;17.77;39.22;100772.09;10310900;28;20186;-62
2024/03/16 15:37:57;;;;;;;0.40;0.30;;;;;;;17.28;40.04;100798.75;10315982;28;20170;-62
2024/03/16 15:42:58;;;;;;;0.65;0.40;;;;;;;16.34;41.73;100805.00;10314000;28;20061;-62
2024/03/16 15:47:58;;;;;;;1.08;0.30;;;;;;;15.95;42.89;100815.44;10313200;28;20043;-62
2024/03/16 15:52:59;;;;;;;2.00;0.30;;;;;;;15.46;43.91;100824.47;10324429;28;20562;-64
2024/03/16 15:58:04;;;;;;;0.65;0.30;;;;;;;15.02;44.05;100839.91;10366563;28;20058;-63
2024/03/16 16:03:05;;;;;;;0.47;0.30;;;;;;;14.53;44.80;100842.47;10350201;23;20058;-86
2024/03/16 16:08:09;;;;;;;0.20;0.20;;;;;;;14.20;45.37;100845.59;10295502;28;20046;-86
2024/03/16 16:13:15;;;;;;;0.30;0.30;;;;;;;13.88;45.88;100851.19;10569919;23;20054;-61
2024/03/16 16:18:16;;;;;;;0.75;0.40;;;;;;;13.96;45.93;100861.09;10422544;28;20045;-63
2024/03/16 16:23:16;;;;;;;2.35;0.32;;;;;;;13.93;46.20;100866.00;10428199;28;20033;-61
2024/03/16 16:28:17;;;;;;;1.85;0.40;;;;;;;13.96;46.41;100879.13;10425565;28;20053;-63
2024/03/16 16:33:17;;;;;;;1.10;0.20;;;;;;;13.64;46.21;100895.47;10430444;28;20048;-63
2024/03/16 16:38:18;;;;;;;1.60;0.30;;;;;;;13.32;46.82;100903.88;10429792;28;20136;-64
2024/03/16 16:43:20;;;;;;;1.45;0.20;;;;;;;13.15;47.31;100901.28;10425501;28;20045;-61
2024/03/16 16:48:22;;;;;;;0.55;0.30;;;;;;;13.23;47.22;100903.03;10429692;28;20021;-61
2024/03/16 16:53:23;;;;;;;3.70;0.60;;;;;;;13.22;47.91;100915.72;10428954;28;20074;-61
2024/03/16 16:58:24;;;;;;;0.98;0.47;;;;;;;13.29;47.82;100921.25;10428476;28;20101;-63
2024/03/16 17:03:24;;;;;;;4.90;0.40;;;;;;;13.06;48.55;100913.97;10412078;28;20050;-63
2024/03/16 17:08:25;;;;;;;0.73;0.40;;;;;;;12.97;48.45;100927.69;10374871;28;20132;-63
2024/03/16 17:13:25;;;;;;;1.30;0.47;;;;;;;12.92;48.68;100925.53;10379113;28;20041;-62
2024/03/16 17:18:26;;;;;;;0.68;0.30;;;;;;;12.72;49.11;100935.91;10382015;28;20046;-63
2024/03/16 17:23:26;;;;;;;3.58;1.13;;;;;;;12.65;49.36;100940.31;10386753;28;20053;-62
2024/03/16 17:28:28;;;;;;;1.10;0.45;;;;;;;12.51;49.61;100952.69;10390456;28;20683;-63
2024/03/16 17:33:28;;;;;;;0.70;0.35;;;;;;;12.41;49.67;100952.88;10385892;28;20053;-63
2024/03/16 17:38:29;;;;;;;1.95;0.47;;;;;;;12.45;49.76;100956.91;10393174;28;20566;-59
2024/03/16 17:43:31;;;;;;;3.20;0.90;;;;;;;12.40;50.02;100970.09;10388698;28;20496;-59
2024/03/16 17:48:32;;;;;;;2.60;0.50;;;;;;;12.30;50.46;100981.06;10390216;28;20507;-59
2024/03/16 17:53:32;;;;;;;2.58;0.60;;;;;;;12.24;50.46;100989.84;10390135;28;20053;-59
2024/03/16 17:58:32;;;;;;;2.28;0.57;;;;;;;12.16;50.76;100994.38;10392722;28;20131;-58
2024/03/16 18:03:33;;;;;;;0.77;0.30;;;;;;;12.21;50.69;100997.41;10392935;28;20067;-59
2024/03/16 18:08:33;;;;;;;1.65;0.55;;;;;;;12.19;50.61;101005.66;10389668;28;20088;-59
2024/03/16 18:13:34;;;;;;;2.25;0.60;;;;;;;12.25;50.73;101010.38;10390763;28;20192;-58
2024/03/16 18:18:34;;;;;;;1.40;1.02;;;;;;;12.18;50.48;101016.59;10386748;28;20471;-58
2024/03/16 18:23:35;;;;;;;1.13;0.50;;;;;;;12.12;50.20;101014.59;10385956;28;20719;-58
2024/03/16 18:28:36;;;;;;;1.60;0.47;;;;;;;12.12;50.17;101022.69;10386177;28;20516;-59
2024/03/16 18:33:37;;;;;;;2.33;0.47;;;;;;;12.10;49.25;101023.72;10382223;28;20057;-59
2024/03/16 18:38:38;;;;;;;3.13;0.52;;;;;;;12.08;49.59;101030.25;10383738;28;20508;-58
2024/03/16 18:43:38;;;;;;;1.23;0.77;;;;;;;12.25;48.99;101031.09;10381734;28;20117;-57
2024/03/16 18:48:39;;;;;;;1.20;0.50;;;;;;;12.12;49.43;101028.91;10382465;28;20129;-57
2024/03/16 18:53:40;;;;;;;2.80;0.43;;;;;;;12.01;49.25;101040.03;10382255;28;20076;-57
2024/03/16 18:58:40;;;;;;;0.68;0.40;;;;;;;11.85;49.53;101036.28;10384672;28;20049;-57
2024/03/16 19:03:41;;;;;;;1.40;0.40;;;;;;;11.88;49.15;101043.19;10380496;28;20057;-57
2024/03/16 19:08:42;;;;;;;1.98;0.57;;;;;;;11.86;49.00;101058.69;10382267;28;20057;-57
2024/03/16 19:13:43;;;;;;;1.88;0.60;;;;;;;11.89;48.74;101055.69;10377006;28;20046;-57
2024/03/16 19:18:44;;;;;;;2.70;0.30;;;;;;;11.83;48.48;101069.81;10376334;28;20467;-58
2024/03/16 19:23:44;;;;;;;2.05;0.40;;;;;;;11.71;48.76;101080.06;10378385;28;20049;-58
2024/03/16 19:28:45;;;;;;;1.73;0.32;;;;;;;11.67;48.43;101076.84;10383057;28;20052;-58
2024/03/16 19:33:45;;;;;;;0.32;0.30;;;;;;;11.61;48.19;101080.22;10381726;28;20223;-59
2024/03/16 19:38:46;;;;;;;3.30;0.40;;;;;;;11.68;48.01;101091.97;10365368;28;20053;-57
2024/03/16 19:43:46;;;;;;;1.65;0.40;;;;;;;11.71;47.77;101094.34;10382724;28;20057;-58
2024/03/16 19:48:47;;;;;;;1.35;0.40;;;;;;;11.63;47.87;101106.94;10377230;28;20449;-57
2024/03/16 19:53:47;;;;;;;2.05;0.50;;;;;;;11.63;48.22;101104.25;10372484;28;20780;-59
2024/03/16 19:58:48;;;;;;;2.92;0.68;;;;;;;11.51;48.15;101106.41;10377759;28;20751;-57
2024/03/16 20:03:48;;;;;;;1.05;0.55;;;;;;;11.49;48.40;101111.09;10377834;28;20489;-57
2024/03/16 20:08:49;;;;;;;2.35;1.02;;;;;;;11.50;48.58;101120.88;10380184;28;20566;-58
2024/03/16 20:13:50;;;;;;;3.30;0.80;;;;;;;11.42;48.67;101107.41;10377898;28;20563;-59
2024/03/16 20:18:51;;;;;;;2.42;0.82;;;;;;;11.33;49.55;101114.59;10376582;28;20076;-58
2024/03/16 20:23:52;;;;;;;2.17;0.80;;;;;;;11.25;49.10;101125.31;10379235;28;20092;-58
2024/03/16 20:28:53;;;;;;;2.90;0.70;;;;;;;11.19;49.71;101129.50;10376287;28;20049;-57
2024/03/16 20:33:54;;;;;;;1.58;0.77;;;;;;;11.13;49.62;101145.44;10377277;28;20515;-58
2024/03/16 20:38:54;;;;;;;6.32;1.35;;;;;;;11.18;49.63;101148.53;10379813;28;20058;-59
2024/03/16 20:43:55;;;;;;;5.47;1.92;;;;;;;11.26;49.31;101144.00;10375200;28;20060;-58
2024/03/16 20:48:56;;;;;;;2.90;1.60;;;;;;;11.28;49.72;101157.31;10375717;28;20056;-59
2024/03/16 20:53:56;;;;;;;3.33;1.20;;;;;;;11.27;50.36;101158.31;10377020;28;20096;-60
2024/03/16 20:58:57;;;;;;;9.23;1.58;;;;;;;11.27;50.49;101159.13;10372823;28;20053;-58
2024/03/16 21:03:57;;;;;;;9.13;1.30;;;;;;;11.27;50.72;101153.75;10373303;28;20049;-58
2024/03/16 21:08:58;;;;;;;2.92;1.40;;;;;;;11.31;51.10;101155.16;10371147;28;20050;-58
2024/03/16 21:13:59;;;;;;;4.45;2.00;;;;;;;11.27;51.74;101155.59;10370584;28;20148;-58
2024/03/16 21:18:59;;;;;;;4.57;1.95;;;;;;;11.25;51.97;101149.53;10377264;28;20408;-58
2024/03/16 21:24:01;;;;;;;4.00;1.73;;;;;;;11.19;52.26;101155.56;10374739;28;20045;-57
2024/03/16 21:29:03;;;;;;;3.67;1.55;;;;;;;11.02;52.16;101157.31;10372054;28;20456;-58
2024/03/16 21:34:04;;;;;;;3.40;1.52;;;;;;;11.05;52.10;101162.38;10374315;28;20496;-59
2024/03/16 21:39:04;;;;;;;3.22;0.88;;;;;;;10.94;52.14;101162.66;10377149;28;20045;-59
2024/03/16 21:44:06;;;;;;;5.15;1.45;;;;;;;10.82;52.28;101160.25;10377140;28;20056;-60
2024/03/16 21:49:06;;;;;;;2.97;1.45;;;;;;;10.65;52.54;101155.75;10376119;28;20041;-61
2024/03/16 21:54:07;;;;;;;5.03;1.15;;;;;;;10.62;52.55;101158.72;10374807;28;20054;-61
2024/03/16 21:59:07;;;;;;;2.45;1.73;;;;;;;10.32;53.36;101155.47;10376931;28;20052;-60
2024/03/16 22:04:08;;;;;;;5.32;1.67;;;;;;;10.29;53.46;101158.44;10381142;28;20099;-60
2024/03/16 22:09:09;;;;;;;4.72;1.60;;;;;;;10.22;53.77;101157.34;10378611;28;20612;-60
2024/03/16 22:14:09;;;;;;;3.25;1.60;;;;;;;9.96;54.72;101155.44;10382221;28;20057;-60
2024/03/16 22:19:10;;;;;;;2.92;1.30;;;;;;;9.83;54.87;101163.84;10382869;28;20048;-60
2024/03/16 22:24:11;;;;;;;4.43;1.90;;;;;;;9.88;54.90;101166.91;10383253;28;20046;-60
2024/03/16 22:29:12;;;;;;;3.78;1.10;;;;;;;9.76;55.31;101167.31;10365667;28;20480;-60
2024/03/16 22:34:13;;;;;;;3.03;1.10;;;;;;;9.68;55.45;101173.41;10384023;28;20041;-61
2024/03/16 22:39:13;;;;;;;1.92;1.60;;;;;;;9.62;55.61;101174.84;10380802;28;20056;-60
2024/03/16 22:44:14;;;;;;;1.42;0.82;;;;;;;9.73;55.22;101176.47;10362451;28;20060;-61
2024/03/16 22:49:14;;;;;;;2.70;0.75;;;;;;;9.80;55.25;101174.06;10377258;28;20508;-60
2024/03/16 22:54:15;;;;;;;3.15;1.10;;;;;;;9.93;54.94;101171.81;10379156;28;20054;-60
2024/03/16 22:59:15;;;;;;;2.72;1.00;;;;;;;9.82;55.13;101174.75;10381121;28;20075;-60
2024/03/16 23:04:16;;;;;;;2.15;1.00;;;;;;;9.78;55.21;101179.56;10378770;28;20054;-60
2024/03/16 23:09:19;;;;;;;2.80;1.00;;;;;;;9.89;55.34;101171.31;10380113;28;20053;-60